createdAt,value
2022-08-09T00:02:08.176Z,96.00
2022-08-09T00:05:03.291Z,95.90
2022-08-09T00:08:02.563Z,96.30
2022-08-09T00:10:49.330Z,96.90
2022-08-09T00:13:38.497Z,97.30
2022-08-09T00:16:38.325Z,97.60
2022-08-09T00:19:25.181Z,98.00
2022-08-09T00:22:14.212Z,98.10
2022-08-09T00:25:08.334Z,97.80
2022-08-09T00:27:56.874Z,97.70
2022-08-09T00:30:43.310Z,97.80
2022-08-09T00:33:48.767Z,98.00
2022-08-09T00:36:37.520Z,97.80
2022-08-09T00:40:09.263Z,97.60
2022-08-09T00:44:15.931Z,97.60
2022-08-09T00:45:39.100Z,97.30
2022-08-09T00:48:37.426Z,97.50
2022-08-09T00:51:25.083Z,96.50
2022-08-09T00:54:12.994Z,96.00
2022-08-09T00:57:02.510Z,96.60
2022-08-09T00:59:59.329Z,96.80
2022-08-09T01:02:51.302Z,96.00
2022-08-09T01:05:51.081Z,96.20
2022-08-09T01:08:52.531Z,96.90
2022-08-09T01:11:55.327Z,97.20
2022-08-09T01:14:52.634Z,97.40
2022-08-09T01:17:45.369Z,97.60
2022-08-09T01:20:41.198Z,97.50
2022-08-09T01:24:02.237Z,98.30
2022-08-09T01:27:08.869Z,98.00
2022-08-09T01:30:00.509Z,98.50
2022-08-09T01:32:50.164Z,98.70
2022-08-09T01:35:47.877Z,99.00
2022-08-09T01:38:46.398Z,99.30
2022-08-09T01:41:36.284Z,99.40
2022-08-09T01:44:26.121Z,99.40
2022-08-09T01:47:14.373Z,99.10
2022-08-09T01:50:06.404Z,99.70
2022-08-09T01:52:56.705Z,99.90
2022-08-09T01:55:44.071Z,99.90
2022-08-09T01:58:34.804Z,99.90
2022-08-09T02:01:57.906Z,99.90
2022-08-09T02:04:33.394Z,99.90
2022-08-09T02:08:40.100Z,99.90
2022-08-09T02:10:38.114Z,99.90
2022-08-09T02:13:37.680Z,99.90
2022-08-09T02:16:33.712Z,99.50
2022-08-09T02:19:43.038Z,99.20
2022-08-09T02:22:36.655Z,99.00
2022-08-09T02:25:28.441Z,99.30
2022-08-09T02:28:18.407Z,99.20
2022-08-09T02:31:08.823Z,99.50
2022-08-09T02:34:12.939Z,99.90
2022-08-09T02:37:06.742Z,99.90
2022-08-09T02:40:01.234Z,99.90
2022-08-09T02:42:51.807Z,99.90
2022-08-09T02:45:44.109Z,99.90
2022-08-09T02:48:34.619Z,99.90
2022-08-09T02:51:26.584Z,99.90
2022-08-09T02:54:15.503Z,99.90
2022-08-09T02:57:13.866Z,99.90
2022-08-09T03:00:25.435Z,99.90
2022-08-09T03:03:21.333Z,99.90
2022-08-09T03:06:14.465Z,99.90
2022-08-09T03:09:04.007Z,99.90
2022-08-09T03:12:10.562Z,99.90
2022-08-09T03:14:58.822Z,99.90
2022-08-09T03:17:46.140Z,99.90
2022-08-09T03:20:45.301Z,99.90
2022-08-09T03:23:32.508Z,99.90
2022-08-09T03:26:21.885Z,99.90
2022-08-09T03:29:22.671Z,99.90
2022-08-09T03:32:10.653Z,99.90
2022-08-09T03:34:58.777Z,99.90
2022-08-09T03:37:56.376Z,99.90
2022-08-09T03:40:43.986Z,99.90
2022-08-09T03:43:33.067Z,99.90
2022-08-09T03:46:29.198Z,99.90
2022-08-09T03:49:19.230Z,99.90
2022-08-09T03:52:09.238Z,99.90
2022-08-09T03:54:58.369Z,99.90
2022-08-09T03:57:57.431Z,99.90
2022-08-09T04:00:53.642Z,99.90
2022-08-09T04:04:00.572Z,99.90
2022-08-09T04:06:49.323Z,99.90
2022-08-09T04:09:44.339Z,99.90
2022-08-09T04:12:45.145Z,99.90
2022-08-09T04:16:18.007Z,99.90
2022-08-09T04:18:41.685Z,99.90
2022-08-09T04:21:28.465Z,99.90
2022-08-09T04:24:16.150Z,99.90
2022-08-09T04:27:03.996Z,99.90
2022-08-09T04:29:51.172Z,99.90
2022-08-09T04:32:38.727Z,99.90
2022-08-09T04:35:27.154Z,99.90
2022-08-09T04:38:16.424Z,99.90
2022-08-09T04:41:05.141Z,99.90
2022-08-09T04:44:05.749Z,99.90
2022-08-09T04:46:58.257Z,99.90
2022-08-09T04:49:54.231Z,99.90
2022-08-09T04:52:43.082Z,99.90
2022-08-09T04:55:37.917Z,99.90
2022-08-09T04:58:31.880Z,99.90
2022-08-09T05:01:19.901Z,99.90
2022-08-09T05:04:07.314Z,99.90
2022-08-09T05:06:53.912Z,99.90
2022-08-09T05:09:50.056Z,99.90
2022-08-09T05:12:37.134Z,99.90
2022-08-09T05:15:38.726Z,99.90
2022-08-09T05:18:38.084Z,99.90
2022-08-09T05:21:47.247Z,99.90
2022-08-09T05:24:43.493Z,99.90
2022-08-09T05:27:34.186Z,99.90
2022-08-09T05:30:32.381Z,99.90
2022-08-09T05:33:19.758Z,99.80
2022-08-09T05:36:13.333Z,99.10
2022-08-09T05:39:02.294Z,98.20
2022-08-09T05:41:53.097Z,97.50
2022-08-09T05:44:41.413Z,97.60
2022-08-09T05:47:33.306Z,97.50
2022-08-09T05:50:35.087Z,97.10
2022-08-09T05:53:33.228Z,96.40
2022-08-09T05:56:20.904Z,95.30
2022-08-09T05:59:13.865Z,94.40
2022-08-09T06:02:02.087Z,94.30
2022-08-09T06:04:48.987Z,92.80
2022-08-09T06:07:36.220Z,92.10
2022-08-09T06:10:37.767Z,91.20
2022-08-09T06:13:25.466Z,89.70
2022-08-09T06:16:16.472Z,86.70
2022-08-09T06:19:03.568Z,86.00
2022-08-09T06:21:58.407Z,84.30
2022-08-09T06:24:45.698Z,83.40
2022-08-09T06:27:42.175Z,82.10
2022-08-09T06:30:30.012Z,80.60
2022-08-09T06:33:39.727Z,77.80
2022-08-09T06:36:27.153Z,75.60
2022-08-09T06:39:16.740Z,74.00
2022-08-09T06:42:09.467Z,73.40
2022-08-09T06:44:58.364Z,73.80
2022-08-09T06:47:45.372Z,73.00
2022-08-09T06:50:33.439Z,71.90
2022-08-09T06:53:20.716Z,71.40
2022-08-09T06:56:07.520Z,72.20
2022-08-09T07:00:51.955Z,73.30
2022-08-09T07:02:04.427Z,72.80
2022-08-09T07:04:51.637Z,71.70
2022-08-09T07:08:00.742Z,70.20
2022-08-09T07:10:46.609Z,70.40
2022-08-09T07:14:04.310Z,69.60
2022-08-09T07:16:48.089Z,69.40
2022-08-09T07:19:37.428Z,68.50
2022-08-09T07:22:34.795Z,67.60
2022-08-09T07:25:24.077Z,66.60
2022-08-09T07:28:12.738Z,65.60
2022-08-09T07:31:06.997Z,65.30
2022-08-09T07:33:55.819Z,64.80
2022-08-09T07:36:42.514Z,62.60
2022-08-09T07:39:41.291Z,62.80
2022-08-09T07:42:32.850Z,62.40
2022-08-09T07:45:37.272Z,62.50
2022-08-09T07:48:30.396Z,61.70
2022-08-09T07:52:05.447Z,61.40
2022-08-09T07:54:30.249Z,61.40
2022-08-09T07:57:17.653Z,59.90
2022-08-09T08:00:08.922Z,59.20
2022-08-09T08:03:04.285Z,59.00
2022-08-09T08:05:57.829Z,60.10
2022-08-09T08:09:02.177Z,58.90
2022-08-09T08:12:09.714Z,58.30
2022-08-09T08:14:57.350Z,58.00
2022-08-09T08:17:53.395Z,58.80
2022-08-09T08:20:42.674Z,57.30
2022-08-09T08:23:29.799Z,58.20
2022-08-09T08:26:42.173Z,58.10
2022-08-09T08:29:39.411Z,57.60
2022-08-09T08:32:35.615Z,57.70
2022-08-09T08:35:59.402Z,57.10
2022-08-09T08:38:47.538Z,57.00
2022-08-09T08:41:50.205Z,56.60
2022-08-09T08:44:38.159Z,56.40
2022-08-09T08:47:27.577Z,56.30
2022-08-09T08:50:18.569Z,56.90
2022-08-09T08:53:11.888Z,56.20
2022-08-09T08:56:03.221Z,56.30
2022-08-09T08:58:50.154Z,56.50
2022-08-09T09:01:51.981Z,56.10
2022-08-09T09:04:52.576Z,56.50
2022-08-09T09:07:44.663Z,56.50
2022-08-09T09:10:34.305Z,56.50
2022-08-09T09:13:21.809Z,56.30
2022-08-09T09:16:10.629Z,56.80
2022-08-09T09:19:21.543Z,56.60
2022-08-09T09:22:07.656Z,57.30
2022-08-09T09:25:39.313Z,56.30
2022-08-09T09:28:08.080Z,56.00
2022-08-09T09:31:00.145Z,55.30
2022-08-09T09:33:48.320Z,55.00
2022-08-09T09:36:53.356Z,54.70
2022-08-09T09:39:56.671Z,55.10
2022-08-09T09:42:46.466Z,53.80
2022-08-09T09:48:57.860Z,53.00
2022-08-09T09:51:44.341Z,52.10
2022-08-09T09:54:40.003Z,52.20
2022-08-09T09:58:04.217Z,52.30
2022-08-09T10:00:54.000Z,52.30
2022-08-09T10:03:56.369Z,52.40
2022-08-09T10:06:47.044Z,52.90
2022-08-09T10:09:54.762Z,53.40
2022-08-09T10:12:43.651Z,52.70
2022-08-09T10:16:09.612Z,53.00
2022-08-09T10:18:59.944Z,52.80
2022-08-09T10:21:48.980Z,52.50
2022-08-09T10:24:36.940Z,51.20
2022-08-09T10:27:24.736Z,49.50
2022-08-09T10:34:09.992Z,50.90
2022-08-09T10:36:37.858Z,50.80
2022-08-09T10:39:28.303Z,50.50
2022-08-09T10:42:16.048Z,50.90
2022-08-09T10:45:10.631Z,51.40
2022-08-09T10:48:20.357Z,51.70
2022-08-09T10:51:29.653Z,51.60
2022-08-09T10:54:16.762Z,51.20
2022-08-09T10:57:09.035Z,51.60
2022-08-09T10:59:58.418Z,51.80
2022-08-09T11:03:18.328Z,52.00
2022-08-09T11:06:26.167Z,52.60
2022-08-09T11:09:17.499Z,52.60
2022-08-09T11:12:11.486Z,52.50
2022-08-09T11:15:01.483Z,52.00
2022-08-09T11:17:53.767Z,52.00
2022-08-09T11:20:49.662Z,51.90
2022-08-09T11:24:04.235Z,52.50
2022-08-09T11:26:54.574Z,52.70
2022-08-09T11:30:04.886Z,52.50
2022-08-09T11:33:01.782Z,51.70
2022-08-09T11:35:56.470Z,51.40
2022-08-09T11:38:43.830Z,51.10
2022-08-09T11:41:37.692Z,50.70
2022-08-09T11:44:48.262Z,51.40
2022-08-09T11:47:46.986Z,51.20
2022-08-09T11:52:43.238Z,51.20
2022-08-09T11:54:28.693Z,51.20
2022-08-09T11:57:55.529Z,51.20
2022-08-09T12:00:52.979Z,50.40
2022-08-09T12:03:57.327Z,50.00
2022-08-09T12:06:55.705Z,50.60
2022-08-09T12:09:50.868Z,50.30
2022-08-09T12:12:47.663Z,50.10
2022-08-09T12:15:49.097Z,50.20
2022-08-09T12:18:39.041Z,49.80
2022-08-09T12:21:38.271Z,50.00
2022-08-09T12:24:25.984Z,50.00
2022-08-09T12:29:00.355Z,49.90
2022-08-09T12:30:36.800Z,50.20
2022-08-09T12:33:26.497Z,49.90
2022-08-09T12:36:33.992Z,50.60
2022-08-09T12:39:23.410Z,50.60
2022-08-09T12:42:11.422Z,50.20
2022-08-09T12:45:07.125Z,50.10
2022-08-09T12:48:27.803Z,50.20
2022-08-09T12:51:30.315Z,50.70
2022-08-09T12:54:27.666Z,50.40
2022-08-09T12:57:14.103Z,50.70
2022-08-09T13:00:13.221Z,49.80
2022-08-09T13:03:02.602Z,50.10
2022-08-09T13:05:52.953Z,50.20
2022-08-09T13:09:06.608Z,50.30
2022-08-09T13:12:02.134Z,50.30
2022-08-09T13:14:53.742Z,50.40
2022-08-09T13:18:03.567Z,50.90
2022-08-09T13:21:04.136Z,50.40
2022-08-09T13:24:17.427Z,50.00
2022-08-09T13:27:28.973Z,50.10
2022-08-09T13:30:50.225Z,50.50
2022-08-09T13:33:35.867Z,49.80
2022-08-09T13:36:40.215Z,49.80
2022-08-09T13:41:17.621Z,51.80
2022-08-09T13:42:37.800Z,50.10
2022-08-09T13:45:32.584Z,49.60
2022-08-09T13:48:32.480Z,48.90
2022-08-09T13:51:20.838Z,48.80
2022-08-09T13:54:08.227Z,49.40
2022-08-09T13:57:01.886Z,49.30
2022-08-09T13:59:53.651Z,48.30
2022-08-09T14:03:16.590Z,49.00
2022-08-09T14:06:00.248Z,48.70
2022-08-09T14:08:49.012Z,49.00
2022-08-09T14:11:41.297Z,48.60
2022-08-09T14:14:36.141Z,48.50
2022-08-09T14:17:23.050Z,48.60
2022-08-09T14:20:11.708Z,48.50
2022-08-09T14:23:02.571Z,48.00
2022-08-09T14:25:51.287Z,49.40
2022-08-09T14:28:38.028Z,48.70
2022-08-09T14:31:35.800Z,48.00
2022-08-09T14:34:33.134Z,48.20
2022-08-09T14:37:20.058Z,47.90
2022-08-09T14:40:15.294Z,48.30
2022-08-09T14:43:02.106Z,48.30
2022-08-09T14:46:58.976Z,47.80
2022-08-09T14:48:58.558Z,47.70
2022-08-09T14:51:45.461Z,47.90
2022-08-09T14:54:35.174Z,47.70
2022-08-09T14:57:22.124Z,47.80
2022-08-09T15:00:19.260Z,47.30
2022-08-09T15:03:08.029Z,47.40
2022-08-09T15:06:00.137Z,47.70
2022-08-09T15:08:56.331Z,47.80
2022-08-09T15:11:49.602Z,47.80
2022-08-09T15:14:38.546Z,47.30
2022-08-09T15:17:25.660Z,47.60
2022-08-09T15:21:53.398Z,47.60
2022-08-09T15:24:02.246Z,48.00
2022-08-09T15:26:31.709Z,47.60
2022-08-09T15:30:55.609Z,47.60
2022-08-09T15:32:28.448Z,49.00
2022-08-09T15:35:18.438Z,48.30
2022-08-09T15:38:24.783Z,47.90
2022-08-09T15:41:11.401Z,48.90
2022-08-09T15:44:09.049Z,47.40
2022-08-09T15:46:56.077Z,47.40
2022-08-09T15:49:46.283Z,48.40
2022-08-09T15:52:54.970Z,47.90
2022-08-09T15:56:21.141Z,48.00
2022-08-09T15:59:02.440Z,48.10
2022-08-09T16:01:49.715Z,48.40
2022-08-09T16:04:38.045Z,49.60
2022-08-09T16:07:25.872Z,48.40
2022-08-09T16:10:38.909Z,48.40
2022-08-09T16:14:05.256Z,48.40
2022-08-09T16:16:31.278Z,48.30
2022-08-09T16:19:18.183Z,48.20
2022-08-09T16:22:05.198Z,48.20
2022-08-09T16:24:56.912Z,48.30
2022-08-09T16:27:47.893Z,48.40
2022-08-09T16:30:44.269Z,48.70
2022-08-09T16:33:35.865Z,48.20
2022-08-09T16:36:29.384Z,48.10
2022-08-09T16:39:16.154Z,48.10
2022-08-09T16:42:05.110Z,48.10
2022-08-09T16:44:51.912Z,47.80
2022-08-09T16:48:39.218Z,47.90
2022-08-09T16:50:58.718Z,47.80
2022-08-09T16:54:25.146Z,48.00
2022-08-09T16:56:54.172Z,48.20
2022-08-09T16:59:43.771Z,48.50
2022-08-09T17:02:30.861Z,48.30
2022-08-09T17:05:20.151Z,48.50
2022-08-09T17:08:47.088Z,48.40
2022-08-09T17:11:13.245Z,48.50
2022-08-09T17:14:02.343Z,48.50
2022-08-09T17:16:49.184Z,48.40
2022-08-09T17:20:09.126Z,48.30
2022-08-09T17:22:50.087Z,48.20
2022-08-09T17:25:38.700Z,48.20
2022-08-09T17:28:26.150Z,48.50
2022-08-09T17:31:16.083Z,48.50
2022-08-09T17:34:03.069Z,48.60
2022-08-09T17:36:53.679Z,48.70
2022-08-09T17:39:53.006Z,48.70
2022-08-09T17:42:59.161Z,48.70
2022-08-09T17:46:03.580Z,48.50
2022-08-09T17:48:52.998Z,48.70
2022-08-09T17:51:39.966Z,48.80
2022-08-09T17:54:29.622Z,48.80
2022-08-09T17:58:02.322Z,48.90
2022-08-09T18:00:43.911Z,48.90
2022-08-09T18:03:31.808Z,49.00
2022-08-09T18:06:31.068Z,49.20
2022-08-09T18:09:19.258Z,49.20
2022-08-09T18:12:17.342Z,49.30
2022-08-09T18:15:12.045Z,49.30
2022-08-09T18:18:02.153Z,49.70
2022-08-09T18:20:56.514Z,49.50
2022-08-09T18:24:10.338Z,49.60
2022-08-09T18:26:57.406Z,49.50
2022-08-09T18:30:34.624Z,49.80
2022-08-09T18:32:53.979Z,49.80
2022-08-09T18:35:58.082Z,49.90
2022-08-09T18:38:46.605Z,49.90
2022-08-09T18:41:36.882Z,50.00
2022-08-09T18:44:29.053Z,50.20
2022-08-09T18:47:18.467Z,50.20
2022-08-09T18:50:12.261Z,50.30
2022-08-09T18:52:59.474Z,50.70
2022-08-09T18:55:56.992Z,50.50
2022-08-09T18:58:55.475Z,50.60
2022-08-09T19:01:45.841Z,50.70
2022-08-09T19:04:35.164Z,50.90
2022-08-09T19:07:23.732Z,51.00
2022-08-09T19:10:17.738Z,51.10
2022-08-09T19:13:20.260Z,51.10
2022-08-09T19:16:10.936Z,51.10
2022-08-09T19:18:59.952Z,51.20
2022-08-09T19:21:52.151Z,51.20
2022-08-09T19:25:08.819Z,51.40
2022-08-09T19:27:47.927Z,51.40
2022-08-09T19:30:39.853Z,51.60
2022-08-09T19:33:31.552Z,51.70
2022-08-09T19:36:20.570Z,51.90
2022-08-09T19:39:10.295Z,52.20
2022-08-09T19:41:58.561Z,52.60
2022-08-09T19:44:50.758Z,53.10
2022-08-09T19:47:38.454Z,53.20
2022-08-09T19:50:48.425Z,53.60
2022-08-09T19:53:37.166Z,54.00
2022-08-09T19:56:34.013Z,54.40
2022-08-09T19:59:57.779Z,54.80
2022-08-09T20:04:07.587Z,55.00
2022-08-09T20:05:46.419Z,55.40
2022-08-09T20:08:35.650Z,55.80
2022-08-09T20:11:26.112Z,56.10
2022-08-09T20:14:15.642Z,55.90
2022-08-09T20:17:03.802Z,56.10
2022-08-09T20:19:54.169Z,56.30
2022-08-09T20:22:44.705Z,56.80
2022-08-09T20:25:49.561Z,57.20
2022-08-09T20:28:48.528Z,57.50
2022-08-09T20:31:40.755Z,57.80
2022-08-09T20:34:44.722Z,58.20
2022-08-09T20:38:08.639Z,58.30
2022-08-09T20:40:41.151Z,58.50
2022-08-09T20:43:28.203Z,58.70
2022-08-09T20:46:33.459Z,58.80
2022-08-09T20:49:22.124Z,59.00
2022-08-09T20:52:11.546Z,59.40
2022-08-09T20:55:08.002Z,59.90
2022-08-09T20:58:05.546Z,60.40
2022-08-09T21:01:33.487Z,61.10
2022-08-09T21:05:51.660Z,61.70
2022-08-09T21:07:20.785Z,62.20
2022-08-09T21:10:17.004Z,62.50
2022-08-09T21:13:04.064Z,63.00
2022-08-09T21:15:54.358Z,63.70
2022-08-09T21:20:05.046Z,63.50
2022-08-09T21:21:56.680Z,64.60
2022-08-09T21:24:59.892Z,64.50
2022-08-09T21:28:00.959Z,65.00
2022-08-09T21:30:47.825Z,65.80
2022-08-09T21:33:36.677Z,65.70
2022-08-09T21:36:28.633Z,66.00
2022-08-09T21:39:21.860Z,66.20
2022-08-09T21:42:15.697Z,66.80
2022-08-09T21:45:02.853Z,66.70
2022-08-09T21:47:51.003Z,67.70
2022-08-09T21:50:38.862Z,68.30
2022-08-09T21:53:40.113Z,68.70
2022-08-09T21:56:33.898Z,69.20
2022-08-09T21:59:42.911Z,70.40
2022-08-09T22:02:36.261Z,70.40
2022-08-09T22:05:23.842Z,70.60
2022-08-09T22:08:25.501Z,70.70
2022-08-09T22:12:05.833Z,70.50
2022-08-09T22:14:18.451Z,70.60
2022-08-09T22:17:07.115Z,70.80
2022-08-09T22:19:58.748Z,70.90
2022-08-09T22:22:47.315Z,71.00
2022-08-09T22:26:08.369Z,71.20
2022-08-09T22:28:43.636Z,71.50
2022-08-09T22:31:50.357Z,72.10
2022-08-09T22:34:45.430Z,72.10
2022-08-09T22:37:46.337Z,73.00
2022-08-09T22:40:33.162Z,73.70
2022-08-09T22:44:00.749Z,74.20
2022-08-09T22:48:15.374Z,74.30
2022-08-09T22:49:36.825Z,74.10
2022-08-09T22:52:29.592Z,73.70
2022-08-09T22:55:22.607Z,74.10
2022-08-09T22:58:09.728Z,73.80
2022-08-09T23:01:07.807Z,73.90
2022-08-09T23:04:04.020Z,74.70
2022-08-09T23:07:11.322Z,76.00
2022-08-09T23:10:02.100Z,76.50
2022-08-09T23:12:48.950Z,76.60
2022-08-09T23:15:35.592Z,77.70
2022-08-09T23:18:22.242Z,78.80
2022-08-09T23:21:10.947Z,80.30
2022-08-09T23:24:06.627Z,81.70
2022-08-09T23:26:55.088Z,81.40
2022-08-09T23:29:42.098Z,81.40
2022-08-09T23:32:29.309Z,80.40
2022-08-09T23:35:16.193Z,80.40
2022-08-09T23:38:02.901Z,80.40
2022-08-09T23:40:51.761Z,80.90
2022-08-09T23:43:39.859Z,81.70
2022-08-09T23:46:26.738Z,81.60
2022-08-09T23:49:13.584Z,82.20
2022-08-09T23:52:00.482Z,83.10
2022-08-09T23:54:46.864Z,83.40
2022-08-09T23:57:41.628Z,83.00
